sensor_id;sensor_type;location;lat;lon;timestamp;P1;durP1;ratioP1;P2;durP2;ratioP2
50531;SDS011;36483;37.396;-122.212;2022-07-23T00:00:16;4.10;;;2.08;;
50531;SDS011;36483;37.396;-122.212;2022-07-23T00:02:42;5.05;;;1.90;;
50531;SDS011;36483;37.396;-122.212;2022-07-23T00:05:09;6.28;;;1.92;;
50531;SDS011;36483;37.396;-122.212;2022-07-23T00:07:36;7.28;;;2.08;;
50531;SDS011;36483;37.396;-122.212;2022-07-23T00:10:02;4.85;;;2.00;;
50531;SDS011;36483;37.396;-122.212;2022-07-23T00:12:29;3.92;;;1.90;;
50531;SDS011;36483;37.396;-122.212;2022-07-23T00:14:57;6.78;;;2.03;;
50531;SDS011;36483;37.396;-122.212;2022-07-23T00:17:23;4.63;;;1.70;;
50531;SDS011;36483;37.396;-122.212;2022-07-23T00:19:50;2.80;;;1.70;;
50531;SDS011;36483;37.396;-122.212;2022-07-23T00:22:16;4.82;;;1.92;;
50531;SDS011;36483;37.396;-122.212;2022-07-23T00:24:42;3.13;;;1.77;;
50531;SDS011;36483;37.396;-122.212;2022-07-23T00:27:08;5.88;;;1.85;;
50531;SDS011;36483;37.396;-122.212;2022-07-23T00:29:34;3.60;;;1.95;;
50531;SDS011;36483;37.396;-122.212;2022-07-23T00:32:00;3.80;;;2.00;;
50531;SDS011;36483;37.396;-122.212;2022-07-23T00:34:26;3.55;;;2.10;;
50531;SDS011;36483;37.396;-122.212;2022-07-23T00:36:52;3.58;;;2.00;;
50531;SDS011;36483;37.396;-122.212;2022-07-23T00:39:19;4.22;;;1.92;;
50531;SDS011;36483;37.396;-122.212;2022-07-23T00:41:47;3.30;;;1.60;;
50531;SDS011;36483;37.396;-122.212;2022-07-23T00:44:18;3.72;;;1.73;;
50531;SDS011;36483;37.396;-122.212;2022-07-23T00:46:49;3.40;;;1.80;;
50531;SDS011;36483;37.396;-122.212;2022-07-23T00:49:19;3.17;;;1.63;;
50531;SDS011;36483;37.396;-122.212;2022-07-23T00:51:49;6.28;;;2.00;;
50531;SDS011;36483;37.396;-122.212;2022-07-23T00:54:16;4.60;;;1.90;;
50531;SDS011;36483;37.396;-122.212;2022-07-23T00:56:44;3.38;;;1.40;;
50531;SDS011;36483;37.396;-122.212;2022-07-23T00:59:10;5.03;;;1.60;;
50531;SDS011;36483;37.396;-122.212;2022-07-23T01:01:37;8.52;;;3.05;;
50531;SDS011;36483;37.396;-122.212;2022-07-23T01:04:04;5.95;;;2.13;;
50531;SDS011;36483;37.396;-122.212;2022-07-23T01:06:31;5.43;;;2.30;;
50531;SDS011;36483;37.396;-122.212;2022-07-23T01:09:01;5.53;;;2.00;;
50531;SDS011;36483;37.396;-122.212;2022-07-23T01:11:27;6.25;;;1.75;;
50531;SDS011;36483;37.396;-122.212;2022-07-23T01:13:54;5.22;;;2.20;;
50531;SDS011;36483;37.396;-122.212;2022-07-23T01:16:20;5.05;;;1.70;;
50531;SDS011;36483;37.396;-122.212;2022-07-23T01:18:47;4.70;;;1.67;;
50531;SDS011;36483;37.396;-122.212;2022-07-23T01:21:13;3.97;;;1.83;;
50531;SDS011;36483;37.396;-122.212;2022-07-23T01:23:39;7.70;;;1.92;;
50531;SDS011;36483;37.396;-122.212;2022-07-23T01:26:06;4.60;;;1.80;;
50531;SDS011;36483;37.396;-122.212;2022-07-23T01:28:32;6.22;;;1.70;;
50531;SDS011;36483;37.396;-122.212;2022-07-23T01:30:58;3.92;;;1.70;;
50531;SDS011;36483;37.396;-122.212;2022-07-23T01:33:24;7.07;;;1.85;;
50531;SDS011;36483;37.396;-122.212;2022-07-23T01:35:50;6.30;;;1.90;;
50531;SDS011;36483;37.396;-122.212;2022-07-23T01:38:16;4.75;;;1.92;;
50531;SDS011;36483;37.396;-122.212;2022-07-23T01:40:42;6.40;;;2.05;;
50531;SDS011;36483;37.396;-122.212;2022-07-23T01:43:08;5.22;;;1.98;;
50531;SDS011;36483;37.396;-122.212;2022-07-23T01:45:34;5.22;;;2.05;;
50531;SDS011;36483;37.396;-122.212;2022-07-23T01:48:01;5.82;;;1.98;;
50531;SDS011;36483;37.396;-122.212;2022-07-23T01:50:27;5.90;;;2.10;;
50531;SDS011;36483;37.396;-122.212;2022-07-23T01:52:53;7.25;;;2.72;;
50531;SDS011;36483;37.396;-122.212;2022-07-23T01:55:19;7.00;;;2.53;;
50531;SDS011;36483;37.396;-122.212;2022-07-23T01:57:45;5.43;;;2.35;;
50531;SDS011;36483;37.396;-122.212;2022-07-23T02:00:11;5.05;;;2.38;;
50531;SDS011;36483;37.396;-122.212;2022-07-23T02:02:38;9.68;;;2.08;;
50531;SDS011;36483;37.396;-122.212;2022-07-23T02:05:04;5.80;;;2.13;;
50531;SDS011;36483;37.396;-122.212;2022-07-23T02:07:30;7.88;;;2.40;;
50531;SDS011;36483;37.396;-122.212;2022-07-23T02:09:57;6.72;;;2.00;;
50531;SDS011;36483;37.396;-122.212;2022-07-23T02:12:23;4.90;;;2.13;;
50531;SDS011;36483;37.396;-122.212;2022-07-23T02:14:49;6.28;;;2.70;;
50531;SDS011;36483;37.396;-122.212;2022-07-23T02:17:15;5.70;;;2.30;;
50531;SDS011;36483;37.396;-122.212;2022-07-23T02:19:41;6.50;;;2.35;;
50531;SDS011;36483;37.396;-122.212;2022-07-23T02:22:07;5.82;;;2.20;;
50531;SDS011;36483;37.396;-122.212;2022-07-23T02:24:33;6.32;;;2.03;;
50531;SDS011;36483;37.396;-122.212;2022-07-23T02:26:59;6.32;;;2.28;;
50531;SDS011;36483;37.396;-122.212;2022-07-23T02:29:25;6.63;;;2.22;;
50531;SDS011;36483;37.396;-122.212;2022-07-23T02:31:51;7.63;;;2.45;;
50531;SDS011;36483;37.396;-122.212;2022-07-23T02:34:17;5.57;;;2.40;;
50531;SDS011;36483;37.396;-122.212;2022-07-23T02:36:43;6.38;;;2.10;;
50531;SDS011;36483;37.396;-122.212;2022-07-23T02:39:10;5.05;;;2.28;;
50531;SDS011;36483;37.396;-122.212;2022-07-23T02:41:36;7.82;;;2.75;;
50531;SDS011;36483;37.396;-122.212;2022-07-23T02:44:02;4.28;;;2.08;;
50531;SDS011;36483;37.396;-122.212;2022-07-23T02:46:28;6.30;;;2.28;;
50531;SDS011;36483;37.396;-122.212;2022-07-23T02:48:54;6.28;;;2.17;;
50531;SDS011;36483;37.396;-122.212;2022-07-23T02:51:20;6.20;;;2.35;;
50531;SDS011;36483;37.396;-122.212;2022-07-23T02:53:47;6.43;;;2.22;;
50531;SDS011;36483;37.396;-122.212;2022-07-23T02:56:13;5.80;;;2.35;;
50531;SDS011;36483;37.396;-122.212;2022-07-23T02:58:39;5.35;;;2.38;;
50531;SDS011;36483;37.396;-122.212;2022-07-23T03:01:05;6.20;;;2.42;;
50531;SDS011;36483;37.396;-122.212;2022-07-23T03:03:31;9.05;;;2.50;;
50531;SDS011;36483;37.396;-122.212;2022-07-23T03:05:58;5.57;;;2.35;;
50531;SDS011;36483;37.396;-122.212;2022-07-23T03:08:24;6.15;;;2.10;;
50531;SDS011;36483;37.396;-122.212;2022-07-23T03:10:50;7.80;;;2.20;;
50531;SDS011;36483;37.396;-122.212;2022-07-23T03:13:16;6.60;;;2.35;;
50531;SDS011;36483;37.396;-122.212;2022-07-23T03:15:42;7.72;;;2.30;;
50531;SDS011;36483;37.396;-122.212;2022-07-23T03:18:08;6.03;;;2.30;;
50531;SDS011;36483;37.396;-122.212;2022-07-23T03:20:34;5.00;;;2.42;;
50531;SDS011;36483;37.396;-122.212;2022-07-23T03:23:00;6.68;;;2.10;;
50531;SDS011;36483;37.396;-122.212;2022-07-23T03:25:27;7.13;;;2.20;;
50531;SDS011;36483;37.396;-122.212;2022-07-23T03:27:53;6.22;;;1.88;;
50531;SDS011;36483;37.396;-122.212;2022-07-23T03:30:19;6.13;;;2.30;;
50531;SDS011;36483;37.396;-122.212;2022-07-23T03:32:45;5.60;;;1.95;;
50531;SDS011;36483;37.396;-122.212;2022-07-23T03:35:11;6.85;;;2.15;;
50531;SDS011;36483;37.396;-122.212;2022-07-23T03:37:37;5.30;;;1.98;;
50531;SDS011;36483;37.396;-122.212;2022-07-23T03:40:04;7.15;;;2.10;;
50531;SDS011;36483;37.396;-122.212;2022-07-23T03:42:30;6.13;;;2.47;;
50531;SDS011;36483;37.396;-122.212;2022-07-23T03:44:56;5.65;;;2.20;;
50531;SDS011;36483;37.396;-122.212;2022-07-23T03:47:22;5.72;;;2.42;;
50531;SDS011;36483;37.396;-122.212;2022-07-23T03:49:49;6.57;;;2.20;;
50531;SDS011;36483;37.396;-122.212;2022-07-23T03:52:15;5.47;;;1.88;;
50531;SDS011;36483;37.396;-122.212;2022-07-23T03:54:41;6.25;;;1.90;;
50531;SDS011;36483;37.396;-122.212;2022-07-23T03:57:08;9.38;;;2.15;;
50531;SDS011;36483;37.396;-122.212;2022-07-23T03:59:34;5.28;;;2.20;;
50531;SDS011;36483;37.396;-122.212;2022-07-23T04:02:00;13.07;;;2.30;;
50531;SDS011;36483;37.396;-122.212;2022-07-23T04:04:26;8.07;;;2.50;;
50531;SDS011;36483;37.396;-122.212;2022-07-23T04:06:52;5.15;;;2.28;;
50531;SDS011;36483;37.396;-122.212;2022-07-23T04:09:18;5.82;;;2.20;;
50531;SDS011;36483;37.396;-122.212;2022-07-23T04:11:44;6.00;;;2.10;;
50531;SDS011;36483;37.396;-122.212;2022-07-23T04:14:10;6.00;;;2.17;;
50531;SDS011;36483;37.396;-122.212;2022-07-23T04:16:36;6.30;;;1.90;;
50531;SDS011;36483;37.396;-122.212;2022-07-23T04:19:02;4.50;;;1.70;;
50531;SDS011;36483;37.396;-122.212;2022-07-23T04:21:29;5.45;;;2.15;;
50531;SDS011;36483;37.396;-122.212;2022-07-23T04:23:56;5.32;;;2.00;;
50531;SDS011;36483;37.396;-122.212;2022-07-23T04:26:22;7.25;;;1.80;;
50531;SDS011;36483;37.396;-122.212;2022-07-23T04:28:48;5.75;;;1.83;;
50531;SDS011;36483;37.396;-122.212;2022-07-23T04:31:14;6.63;;;2.28;;
50531;SDS011;36483;37.396;-122.212;2022-07-23T04:33:40;5.57;;;2.17;;
50531;SDS011;36483;37.396;-122.212;2022-07-23T04:36:06;6.15;;;2.30;;
50531;SDS011;36483;37.396;-122.212;2022-07-23T04:38:32;5.25;;;1.85;;
50531;SDS011;36483;37.396;-122.212;2022-07-23T04:40:59;5.90;;;2.00;;
50531;SDS011;36483;37.396;-122.212;2022-07-23T04:43:25;5.40;;;1.95;;
50531;SDS011;36483;37.396;-122.212;2022-07-23T04:45:52;5.65;;;2.03;;
50531;SDS011;36483;37.396;-122.212;2022-07-23T04:48:18;5.32;;;2.38;;
50531;SDS011;36483;37.396;-122.212;2022-07-23T04:50:44;7.90;;;2.13;;
50531;SDS011;36483;37.396;-122.212;2022-07-23T04:53:10;5.15;;;1.98;;
50531;SDS011;36483;37.396;-122.212;2022-07-23T04:55:36;6.80;;;1.92;;
50531;SDS011;36483;37.396;-122.212;2022-07-23T04:58:02;6.97;;;2.08;;
50531;SDS011;36483;37.396;-122.212;2022-07-23T05:00:28;7.28;;;2.30;;
50531;SDS011;36483;37.396;-122.212;2022-07-23T05:02:54;7.80;;;1.98;;
50531;SDS011;36483;37.396;-122.212;2022-07-23T05:05:21;6.65;;;2.17;;
50531;SDS011;36483;37.396;-122.212;2022-07-23T05:07:47;5.13;;;1.85;;
50531;SDS011;36483;37.396;-122.212;2022-07-23T05:10:13;6.53;;;1.98;;
50531;SDS011;36483;37.396;-122.212;2022-07-23T05:12:39;8.98;;;2.38;;
50531;SDS011;36483;37.396;-122.212;2022-07-23T05:15:05;5.65;;;1.92;;
50531;SDS011;36483;37.396;-122.212;2022-07-23T05:17:31;7.18;;;2.08;;
50531;SDS011;36483;37.396;-122.212;2022-07-23T05:19:57;7.07;;;2.15;;
50531;SDS011;36483;37.396;-122.212;2022-07-23T05:22:23;6.15;;;2.30;;
50531;SDS011;36483;37.396;-122.212;2022-07-23T05:24:50;7.22;;;2.30;;
50531;SDS011;36483;37.396;-122.212;2022-07-23T05:27:16;9.68;;;2.00;;
50531;SDS011;36483;37.396;-122.212;2022-07-23T05:29:42;4.78;;;1.98;;
50531;SDS011;36483;37.396;-122.212;2022-07-23T05:32:08;7.72;;;2.35;;
50531;SDS011;36483;37.396;-122.212;2022-07-23T05:34:34;7.90;;;2.45;;
50531;SDS011;36483;37.396;-122.212;2022-07-23T05:37:00;8.70;;;2.28;;
50531;SDS011;36483;37.396;-122.212;2022-07-23T05:39:26;6.85;;;1.95;;
50531;SDS011;36483;37.396;-122.212;2022-07-23T05:41:52;6.90;;;2.22;;
50531;SDS011;36483;37.396;-122.212;2022-07-23T05:44:18;6.20;;;1.92;;
50531;SDS011;36483;37.396;-122.212;2022-07-23T05:46:46;6.38;;;1.85;;
50531;SDS011;36483;37.396;-122.212;2022-07-23T05:49:12;7.60;;;2.20;;
50531;SDS011;36483;37.396;-122.212;2022-07-23T05:51:38;5.90;;;1.88;;
50531;SDS011;36483;37.396;-122.212;2022-07-23T05:54:04;5.03;;;1.88;;
50531;SDS011;36483;37.396;-122.212;2022-07-23T05:56:30;5.65;;;2.03;;
50531;SDS011;36483;37.396;-122.212;2022-07-23T05:58:56;6.03;;;2.10;;
50531;SDS011;36483;37.396;-122.212;2022-07-23T06:01:22;6.05;;;2.10;;
50531;SDS011;36483;37.396;-122.212;2022-07-23T06:03:48;5.90;;;1.90;;
50531;SDS011;36483;37.396;-122.212;2022-07-23T06:06:15;5.95;;;2.10;;
50531;SDS011;36483;37.396;-122.212;2022-07-23T06:08:41;5.72;;;1.88;;
50531;SDS011;36483;37.396;-122.212;2022-07-23T06:11:07;6.20;;;2.38;;
50531;SDS011;36483;37.396;-122.212;2022-07-23T06:13:33;5.35;;;2.25;;
50531;SDS011;36483;37.396;-122.212;2022-07-23T06:15:59;5.68;;;2.30;;
50531;SDS011;36483;37.396;-122.212;2022-07-23T06:18:25;6.03;;;2.20;;
50531;SDS011;36483;37.396;-122.212;2022-07-23T06:20:51;5.88;;;2.00;;
50531;SDS011;36483;37.396;-122.212;2022-07-23T06:23:17;7.18;;;2.35;;
50531;SDS011;36483;37.396;-122.212;2022-07-23T06:25:43;6.72;;;2.30;;
50531;SDS011;36483;37.396;-122.212;2022-07-23T06:28:10;7.13;;;2.22;;
50531;SDS011;36483;37.396;-122.212;2022-07-23T06:30:36;5.80;;;2.10;;
50531;SDS011;36483;37.396;-122.212;2022-07-23T06:33:02;5.85;;;2.03;;
50531;SDS011;36483;37.396;-122.212;2022-07-23T06:35:28;6.35;;;2.20;;
50531;SDS011;36483;37.396;-122.212;2022-07-23T06:37:54;6.45;;;2.50;;
50531;SDS011;36483;37.396;-122.212;2022-07-23T06:40:20;5.45;;;2.13;;
50531;SDS011;36483;37.396;-122.212;2022-07-23T06:42:46;6.22;;;2.00;;
50531;SDS011;36483;37.396;-122.212;2022-07-23T06:45:13;5.57;;;2.38;;
50531;SDS011;36483;37.396;-122.212;2022-07-23T06:47:39;6.88;;;2.47;;
50531;SDS011;36483;37.396;-122.212;2022-07-23T06:50:07;10.95;;;2.40;;
50531;SDS011;36483;37.396;-122.212;2022-07-23T06:52:33;7.55;;;2.17;;
50531;SDS011;36483;37.396;-122.212;2022-07-23T06:54:59;7.20;;;2.03;;
50531;SDS011;36483;37.396;-122.212;2022-07-23T06:57:25;8.00;;;2.20;;
50531;SDS011;36483;37.396;-122.212;2022-07-23T06:59:52;8.30;;;2.60;;
50531;SDS011;36483;37.396;-122.212;2022-07-23T07:02:18;7.53;;;2.40;;
50531;SDS011;36483;37.396;-122.212;2022-07-23T07:04:44;8.32;;;2.60;;
50531;SDS011;36483;37.396;-122.212;2022-07-23T07:07:10;5.88;;;2.53;;
50531;SDS011;36483;37.396;-122.212;2022-07-23T07:09:37;10.35;;;2.40;;
50531;SDS011;36483;37.396;-122.212;2022-07-23T07:12:04;6.35;;;2.20;;
50531;SDS011;36483;37.396;-122.212;2022-07-23T07:14:30;10.63;;;2.40;;
50531;SDS011;36483;37.396;-122.212;2022-07-23T07:17:16;9.07;;;2.53;;
50531;SDS011;36483;37.396;-122.212;2022-07-23T07:19:42;8.98;;;2.33;;
50531;SDS011;36483;37.396;-122.212;2022-07-23T07:22:08;7.93;;;2.65;;
50531;SDS011;36483;37.396;-122.212;2022-07-23T07:24:34;11.02;;;2.70;;
50531;SDS011;36483;37.396;-122.212;2022-07-23T07:27:01;8.50;;;2.58;;
50531;SDS011;36483;37.396;-122.212;2022-07-23T07:29:27;7.70;;;2.65;;
50531;SDS011;36483;37.396;-122.212;2022-07-23T07:31:53;6.45;;;2.85;;
50531;SDS011;36483;37.396;-122.212;2022-07-23T07:34:19;8.60;;;2.70;;
50531;SDS011;36483;37.396;-122.212;2022-07-23T07:36:46;10.05;;;2.70;;
50531;SDS011;36483;37.396;-122.212;2022-07-23T07:39:12;6.85;;;2.67;;
50531;SDS011;36483;37.396;-122.212;2022-07-23T07:41:39;9.57;;;3.30;;
50531;SDS011;36483;37.396;-122.212;2022-07-23T07:44:05;8.43;;;2.38;;
50531;SDS011;36483;37.396;-122.212;2022-07-23T07:46:31;6.85;;;2.50;;
50531;SDS011;36483;37.396;-122.212;2022-07-23T07:48:58;10.10;;;3.00;;
50531;SDS011;36483;37.396;-122.212;2022-07-23T07:51:24;10.18;;;3.00;;
50531;SDS011;36483;37.396;-122.212;2022-07-23T07:53:50;10.63;;;2.95;;
50531;SDS011;36483;37.396;-122.212;2022-07-23T07:56:16;6.95;;;2.72;;
50531;SDS011;36483;37.396;-122.212;2022-07-23T07:58:42;6.68;;;2.72;;
50531;SDS011;36483;37.396;-122.212;2022-07-23T08:01:08;9.98;;;2.95;;
50531;SDS011;36483;37.396;-122.212;2022-07-23T08:03:35;8.40;;;2.55;;
50531;SDS011;36483;37.396;-122.212;2022-07-23T08:06:01;11.75;;;2.88;;
50531;SDS011;36483;37.396;-122.212;2022-07-23T08:08:27;10.05;;;2.80;;
50531;SDS011;36483;37.396;-122.212;2022-07-23T08:10:53;7.93;;;2.55;;
50531;SDS011;36483;37.396;-122.212;2022-07-23T08:13:19;7.93;;;2.60;;
50531;SDS011;36483;37.396;-122.212;2022-07-23T08:15:45;8.68;;;2.78;;
50531;SDS011;36483;37.396;-122.212;2022-07-23T08:18:11;11.82;;;3.30;;
50531;SDS011;36483;37.396;-122.212;2022-07-23T08:20:37;10.45;;;3.00;;
50531;SDS011;36483;37.396;-122.212;2022-07-23T08:23:04;11.88;;;3.40;;
50531;SDS011;36483;37.396;-122.212;2022-07-23T08:25:32;9.52;;;2.97;;
50531;SDS011;36483;37.396;-122.212;2022-07-23T08:28:04;15.15;;;3.58;;
50531;SDS011;36483;37.396;-122.212;2022-07-23T08:30:31;9.73;;;3.00;;
50531;SDS011;36483;37.396;-122.212;2022-07-23T08:35:27;12.55;;;3.40;;
50531;SDS011;36483;37.396;-122.212;2022-07-23T08:37:55;13.05;;;3.58;;
50531;SDS011;36483;37.396;-122.212;2022-07-23T08:40:21;14.00;;;3.03;;
50531;SDS011;36483;37.396;-122.212;2022-07-23T08:42:48;12.80;;;3.08;;
50531;SDS011;36483;37.396;-122.212;2022-07-23T08:45:19;10.70;;;3.00;;
50531;SDS011;36483;37.396;-122.212;2022-07-23T08:47:50;10.75;;;3.00;;
50531;SDS011;36483;37.396;-122.212;2022-07-23T08:50:19;12.85;;;3.38;;
50531;SDS011;36483;37.396;-122.212;2022-07-23T08:52:46;14.13;;;3.05;;
50531;SDS011;36483;37.396;-122.212;2022-07-23T08:55:15;18.65;;;3.28;;
50531;SDS011;36483;37.396;-122.212;2022-07-23T08:57:43;13.05;;;3.30;;
50531;SDS011;36483;37.396;-122.212;2022-07-23T09:00:09;11.13;;;3.17;;
50531;SDS011;36483;37.396;-122.212;2022-07-23T09:02:42;11.05;;;3.17;;
50531;SDS011;36483;37.396;-122.212;2022-07-23T09:05:10;11.45;;;2.90;;
50531;SDS011;36483;37.396;-122.212;2022-07-23T09:07:37;10.65;;;3.47;;
50531;SDS011;36483;37.396;-122.212;2022-07-23T09:10:08;10.02;;;3.03;;
50531;SDS011;36483;37.396;-122.212;2022-07-23T09:12:36;10.10;;;3.00;;
50531;SDS011;36483;37.396;-122.212;2022-07-23T09:15:04;8.02;;;2.95;;
50531;SDS011;36483;37.396;-122.212;2022-07-23T09:17:41;14.82;;;3.53;;
50531;SDS011;36483;37.396;-122.212;2022-07-23T09:20:09;9.52;;;3.33;;
50531;SDS011;36483;37.396;-122.212;2022-07-23T09:22:36;12.48;;;3.22;;
50531;SDS011;36483;37.396;-122.212;2022-07-23T09:25:04;8.20;;;2.80;;
50531;SDS011;36483;37.396;-122.212;2022-07-23T09:30:18;8.23;;;2.85;;
50531;SDS011;36483;37.396;-122.212;2022-07-23T09:33:03;10.52;;;3.35;;
50531;SDS011;36483;37.396;-122.212;2022-07-23T09:35:44;11.90;;;3.08;;
50531;SDS011;36483;37.396;-122.212;2022-07-23T09:38:14;10.63;;;3.20;;
50531;SDS011;36483;37.396;-122.212;2022-07-23T09:40:40;8.23;;;3.35;;
50531;SDS011;36483;37.396;-122.212;2022-07-23T09:43:07;6.40;;;2.88;;
50531;SDS011;36483;37.396;-122.212;2022-07-23T09:45:33;11.63;;;2.72;;
50531;SDS011;36483;37.396;-122.212;2022-07-23T09:48:10;10.10;;;2.78;;
50531;SDS011;36483;37.396;-122.212;2022-07-23T09:50:40;8.48;;;3.03;;
50531;SDS011;36483;37.396;-122.212;2022-07-23T09:53:07;7.63;;;2.75;;
50531;SDS011;36483;37.396;-122.212;2022-07-23T09:55:35;10.23;;;2.83;;
50531;SDS011;36483;37.396;-122.212;2022-07-23T09:58:07;10.07;;;3.53;;
50531;SDS011;36483;37.396;-122.212;2022-07-23T10:00:40;12.25;;;4.00;;
50531;SDS011;36483;37.396;-122.212;2022-07-23T10:03:06;12.02;;;3.97;;
50531;SDS011;36483;37.396;-122.212;2022-07-23T10:05:32;9.23;;;3.55;;
50531;SDS011;36483;37.396;-122.212;2022-07-23T10:08:01;8.25;;;3.45;;
50531;SDS011;36483;37.396;-122.212;2022-07-23T10:10:27;8.73;;;3.45;;
50531;SDS011;36483;37.396;-122.212;2022-07-23T10:12:55;9.35;;;3.40;;
50531;SDS011;36483;37.396;-122.212;2022-07-23T10:15:41;8.85;;;2.97;;
50531;SDS011;36483;37.396;-122.212;2022-07-23T10:18:09;9.35;;;3.17;;
50531;SDS011;36483;37.396;-122.212;2022-07-23T10:20:37;10.10;;;3.15;;
50531;SDS011;36483;37.396;-122.212;2022-07-23T10:26:04;8.63;;;3.45;;
50531;SDS011;36483;37.396;-122.212;2022-07-23T10:35:07;9.90;;;3.30;;
50531;SDS011;36483;37.396;-122.212;2022-07-23T10:37:44;15.45;;;3.65;;
50531;SDS011;36483;37.396;-122.212;2022-07-23T10:40:14;10.82;;;3.22;;
50531;SDS011;36483;37.396;-122.212;2022-07-23T10:42:49;7.78;;;2.88;;
50531;SDS011;36483;37.396;-122.212;2022-07-23T10:45:24;8.10;;;2.65;;
50531;SDS011;36483;37.396;-122.212;2022-07-23T10:47:54;11.93;;;3.17;;
50531;SDS011;36483;37.396;-122.212;2022-07-23T10:50:28;10.73;;;2.88;;
50531;SDS011;36483;37.396;-122.212;2022-07-23T10:58:03;13.73;;;2.88;;
50531;SDS011;36483;37.396;-122.212;2022-07-23T11:00:31;8.02;;;2.90;;
50531;SDS011;36483;37.396;-122.212;2022-07-23T11:03:01;12.95;;;2.97;;
50531;SDS011;36483;37.396;-122.212;2022-07-23T11:05:40;8.88;;;2.60;;
50531;SDS011;36483;37.396;-122.212;2022-07-23T11:08:11;7.60;;;2.88;;
50531;SDS011;36483;37.396;-122.212;2022-07-23T11:26:44;8.65;;;3.25;;
50531;SDS011;36483;37.396;-122.212;2022-07-23T11:31:52;7.32;;;2.80;;
50531;SDS011;36483;37.396;-122.212;2022-07-23T11:36:59;8.63;;;2.80;;
50531;SDS011;36483;37.396;-122.212;2022-07-23T11:39:27;8.88;;;2.80;;
50531;SDS011;36483;37.396;-122.212;2022-07-23T11:41:55;10.05;;;3.67;;
50531;SDS011;36483;37.396;-122.212;2022-07-23T11:46:59;8.13;;;2.80;;
50531;SDS011;36483;37.396;-122.212;2022-07-23T11:49:26;10.27;;;3.22;;
50531;SDS011;36483;37.396;-122.212;2022-07-23T11:52:09;9.05;;;3.00;;
50531;SDS011;36483;37.396;-122.212;2022-07-23T11:54:46;9.45;;;3.05;;
50531;SDS011;36483;37.396;-122.212;2022-07-23T11:57:14;8.73;;;3.00;;
50531;SDS011;36483;37.396;-122.212;2022-07-23T11:59:40;11.30;;;3.17;;
50531;SDS011;36483;37.396;-122.212;2022-07-23T12:02:06;8.30;;;3.45;;
50531;SDS011;36483;37.396;-122.212;2022-07-23T12:04:39;7.05;;;2.53;;
50531;SDS011;36483;37.396;-122.212;2022-07-23T12:07:23;7.30;;;2.88;;
50531;SDS011;36483;37.396;-122.212;2022-07-23T12:10:01;8.45;;;2.35;;
50531;SDS011;36483;37.396;-122.212;2022-07-23T12:12:40;9.02;;;3.15;;
50531;SDS011;36483;37.396;-122.212;2022-07-23T12:15:39;5.97;;;2.75;;
50531;SDS011;36483;37.396;-122.212;2022-07-23T12:18:12;9.32;;;3.47;;
50531;SDS011;36483;37.396;-122.212;2022-07-23T12:20:41;9.40;;;2.65;;
50531;SDS011;36483;37.396;-122.212;2022-07-23T12:23:10;8.50;;;3.15;;
50531;SDS011;36483;37.396;-122.212;2022-07-23T12:25:38;9.70;;;3.40;;
50531;SDS011;36483;37.396;-122.212;2022-07-23T12:30:40;6.85;;;2.70;;
50531;SDS011;36483;37.396;-122.212;2022-07-23T12:33:08;8.48;;;3.38;;
50531;SDS011;36483;37.396;-122.212;2022-07-23T12:35:43;9.55;;;3.35;;
50531;SDS011;36483;37.396;-122.212;2022-07-23T12:38:20;8.43;;;3.05;;
50531;SDS011;36483;37.396;-122.212;2022-07-23T12:41:05;8.80;;;2.80;;
50531;SDS011;36483;37.396;-122.212;2022-07-23T12:43:32;14.80;;;2.75;;
50531;SDS011;36483;37.396;-122.212;2022-07-23T12:46:15;7.65;;;3.15;;
50531;SDS011;36483;37.396;-122.212;2022-07-23T12:48:53;8.63;;;2.95;;
50531;SDS011;36483;37.396;-122.212;2022-07-23T12:51:27;10.35;;;3.17;;
50531;SDS011;36483;37.396;-122.212;2022-07-23T12:54:03;7.13;;;3.40;;
50531;SDS011;36483;37.396;-122.212;2022-07-23T12:56:31;8.45;;;3.00;;
50531;SDS011;36483;37.396;-122.212;2022-07-23T12:59:06;8.60;;;2.80;;
50531;SDS011;36483;37.396;-122.212;2022-07-23T13:01:39;7.72;;;2.67;;
50531;SDS011;36483;37.396;-122.212;2022-07-23T13:04:10;12.23;;;3.35;;
50531;SDS011;36483;37.396;-122.212;2022-07-23T13:06:45;6.85;;;3.03;;
50531;SDS011;36483;37.396;-122.212;2022-07-23T13:09:21;8.68;;;2.80;;
50531;SDS011;36483;37.396;-122.212;2022-07-23T13:11:49;11.43;;;3.20;;
50531;SDS011;36483;37.396;-122.212;2022-07-23T13:14:16;9.40;;;3.25;;
50531;SDS011;36483;37.396;-122.212;2022-07-23T13:16:43;12.15;;;3.05;;
50531;SDS011;36483;37.396;-122.212;2022-07-23T13:19:10;10.93;;;3.17;;
50531;SDS011;36483;37.396;-122.212;2022-07-23T13:21:36;9.00;;;3.03;;
50531;SDS011;36483;37.396;-122.212;2022-07-23T13:24:02;10.93;;;3.60;;
50531;SDS011;36483;37.396;-122.212;2022-07-23T13:26:29;11.60;;;3.88;;
50531;SDS011;36483;37.396;-122.212;2022-07-23T13:28:55;12.10;;;3.47;;
50531;SDS011;36483;37.396;-122.212;2022-07-23T13:31:21;14.43;;;3.72;;
50531;SDS011;36483;37.396;-122.212;2022-07-23T13:33:47;11.10;;;3.67;;
50531;SDS011;36483;37.396;-122.212;2022-07-23T13:36:13;10.95;;;3.70;;
50531;SDS011;36483;37.396;-122.212;2022-07-23T13:38:40;16.25;;;3.80;;
50531;SDS011;36483;37.396;-122.212;2022-07-23T13:41:06;9.73;;;3.30;;
50531;SDS011;36483;37.396;-122.212;2022-07-23T13:43:32;11.68;;;3.83;;
50531;SDS011;36483;37.396;-122.212;2022-07-23T13:45:59;14.10;;;4.32;;
50531;SDS011;36483;37.396;-122.212;2022-07-23T13:48:26;14.45;;;3.40;;
50531;SDS011;36483;37.396;-122.212;2022-07-23T13:50:53;10.98;;;3.30;;
50531;SDS011;36483;37.396;-122.212;2022-07-23T13:53:20;12.75;;;3.65;;
50531;SDS011;36483;37.396;-122.212;2022-07-23T13:55:48;9.27;;;3.35;;
50531;SDS011;36483;37.396;-122.212;2022-07-23T13:58:16;12.30;;;3.60;;
50531;SDS011;36483;37.396;-122.212;2022-07-23T14:00:47;8.48;;;3.25;;
50531;SDS011;36483;37.396;-122.212;2022-07-23T14:03:15;9.65;;;3.22;;
50531;SDS011;36483;37.396;-122.212;2022-07-23T14:05:41;10.98;;;3.50;;
50531;SDS011;36483;37.396;-122.212;2022-07-23T14:08:08;9.07;;;3.00;;
50531;SDS011;36483;37.396;-122.212;2022-07-23T14:10:35;11.68;;;3.42;;
50531;SDS011;36483;37.396;-122.212;2022-07-23T14:13:01;10.73;;;3.13;;
50531;SDS011;36483;37.396;-122.212;2022-07-23T14:15:28;11.02;;;3.13;;
50531;SDS011;36483;37.396;-122.212;2022-07-23T14:17:55;8.48;;;2.90;;
50531;SDS011;36483;37.396;-122.212;2022-07-23T14:20:22;9.88;;;3.72;;
50531;SDS011;36483;37.396;-122.212;2022-07-23T14:22:48;10.68;;;3.20;;
50531;SDS011;36483;37.396;-122.212;2022-07-23T14:25:15;11.02;;;2.97;;
50531;SDS011;36483;37.396;-122.212;2022-07-23T14:27:41;14.55;;;3.67;;
50531;SDS011;36483;37.396;-122.212;2022-07-23T14:30:08;7.82;;;3.25;;
50531;SDS011;36483;37.396;-122.212;2022-07-23T14:32:35;10.15;;;3.22;;
50531;SDS011;36483;37.396;-122.212;2022-07-23T14:35:01;9.63;;;3.38;;
50531;SDS011;36483;37.396;-122.212;2022-07-23T14:37:28;9.98;;;3.50;;
50531;SDS011;36483;37.396;-122.212;2022-07-23T14:39:54;11.25;;;3.45;;
50531;SDS011;36483;37.396;-122.212;2022-07-23T14:42:20;14.45;;;3.95;;
50531;SDS011;36483;37.396;-122.212;2022-07-23T14:44:46;11.10;;;2.97;;
50531;SDS011;36483;37.396;-122.212;2022-07-23T14:47:13;9.00;;;3.00;;
50531;SDS011;36483;37.396;-122.212;2022-07-23T14:49:39;11.45;;;3.60;;
50531;SDS011;36483;37.396;-122.212;2022-07-23T14:52:05;9.05;;;3.30;;
50531;SDS011;36483;37.396;-122.212;2022-07-23T14:54:32;10.50;;;3.67;;